DGMMC ELLX-EDVK
Flight info
| Callsign | DGMMC |
|---|---|
| Flight time | N/A |
| Altitude | 8000 |
| Route | ELLX/06 VFR |
| Aircraft | DA42/L-V/N |
Departure
| Time | 2026-05-01 07:24 |
|---|---|
| Airport | Luxembourg-Findel International Airport (ELLX) |
Arrival
| Time | N/A |
|---|---|
| Airport | Kassel Airport (EDVK) |
| Time | Latitude | Longitude | Altitude | Speed | Heading |
|---|---|---|---|---|---|
| 2026-05-01 07:23 | 49.62138 | 6.19795 | 1176 ft | 41 kts | 60° |
| 2026-05-01 07:23 | 49.62671 | 6.21158 | 1402 ft | 87 kts | 60° |
| 2026-05-01 07:24 | 49.63016 | 6.21937 | 1726 ft | 90 kts | 63° |
| 2026-05-01 07:24 | 49.63330 | 6.22820 | 2017 ft | 106 kts | 66° |
| 2026-05-01 07:24 | 49.63703 | 6.23979 | 1997 ft | 131 kts | 76° |
| 2026-05-01 07:24 | 49.63691 | 6.25416 | 1998 ft | 139 kts | 97° |
| 2026-05-01 07:25 | 49.63557 | 6.26933 | 1985 ft | 142 kts | 101° |
| 2026-05-01 07:25 | 49.63343 | 6.28385 | 1984 ft | 139 kts | 103° |
| 2026-05-01 07:25 | 49.63129 | 6.29820 | 1986 ft | 136 kts | 103° |
| 2026-05-01 07:25 | 49.62913 | 6.31224 | 1983 ft | 133 kts | 103° |
| 2026-05-01 07:26 | 49.62689 | 6.32625 | 1983 ft | 135 kts | 103° |
| 2026-05-01 07:26 | 49.62467 | 6.34016 | 1988 ft | 133 kts | 103° |
| 2026-05-01 07:26 | 49.62248 | 6.35414 | 1986 ft | 134 kts | 103° |
| 2026-05-01 07:26 | 49.62051 | 6.36817 | 1987 ft | 135 kts | 102° |
| 2026-05-01 07:27 | 49.61863 | 6.38221 | 1981 ft | 133 kts | 101° |
| 2026-05-01 07:27 | 49.61659 | 6.39616 | 1994 ft | 136 kts | 102° |
| 2026-05-01 07:27 | 49.61453 | 6.41031 | 2018 ft | 133 kts | 102° |
| 2026-05-01 07:27 | 49.61270 | 6.42349 | 2331 ft | 115 kts | 103° |
| 2026-05-01 07:28 | 49.61156 | 6.43420 | 2818 ft | 88 kts | 103° |
| 2026-05-01 07:28 | 49.61111 | 6.44261 | 3256 ft | 75 kts | 102° |
| 2026-05-01 07:28 | 49.61080 | 6.45085 | 3526 ft | 79 kts | 102° |
| 2026-05-01 07:28 | 49.61053 | 6.45932 | 3782 ft | 81 kts | 102° |
| 2026-05-01 07:29 | 49.61030 | 6.46808 | 4065 ft | 82 kts | 102° |
| 2026-05-01 07:29 | 49.61007 | 6.47684 | 4415 ft | 82 kts | 102° |
| 2026-05-01 07:29 | 49.60984 | 6.48580 | 4782 ft | 85 kts | 102° |
| 2026-05-01 07:29 | 49.60960 | 6.49503 | 5107 ft | 86 kts | 102° |
| 2026-05-01 07:30 | 49.60934 | 6.50430 | 5401 ft | 87 kts | 102° |
| 2026-05-01 07:30 | 49.60904 | 6.51371 | 5701 ft | 90 kts | 97° |
| 2026-05-01 07:30 | 49.61028 | 6.52348 | 5932 ft | 94 kts | 87° |
| 2026-05-01 07:30 | 49.61172 | 6.53334 | 6158 ft | 95 kts | 86° |
| 2026-05-01 07:31 | 49.61558 | 6.54182 | 6428 ft | 105 kts | 46° |
| 2026-05-01 07:31 | 49.63286 | 6.56253 | 7149 ft | 104 kts | 47° |
| 2026-05-01 07:32 | 49.64581 | 6.57167 | 7688 ft | 114 kts | 1° |
| 2026-05-01 07:32 | 49.65379 | 6.57103 | 7910 ft | 116 kts | 3° |
| 2026-05-01 07:33 | 49.67254 | 6.57178 | 7964 ft | 150 kts | 22° |
| 2026-05-01 07:33 | 49.68192 | 6.57911 | 7970 ft | 153 kts | 44° |
| 2026-05-01 07:33 | 49.69902 | 6.60080 | 7966 ft | 163 kts | 46° |
| 2026-05-01 07:34 | 49.70773 | 6.61235 | 7972 ft | 167 kts | 46° |
| 2026-05-01 07:34 | 49.72542 | 6.63599 | 7969 ft | 168 kts | 46° |
| 2026-05-01 07:34 | 49.73431 | 6.64788 | 7966 ft | 169 kts | 46° |
| 2026-05-01 07:35 | 49.74307 | 6.65960 | 7970 ft | 169 kts | 46° |
| 2026-05-01 07:35 | 49.75194 | 6.67151 | 7976 ft | 170 kts | 46° |
| 2026-05-01 07:35 | 49.76090 | 6.68354 | 7970 ft | 170 kts | 46° |
| 2026-05-01 07:35 | 49.76890 | 6.69674 | 7976 ft | 168 kts | 54° |
| 2026-05-01 07:36 | 49.77662 | 6.71035 | 7974 ft | 168 kts | 52° |
| 2026-05-01 07:36 | 49.78475 | 6.72340 | 7975 ft | 168 kts | 50° |
| 2026-05-01 07:36 | 49.79301 | 6.73618 | 7975 ft | 168 kts | 50° |
| 2026-05-01 07:36 | 49.80130 | 6.74901 | 7976 ft | 169 kts | 50° |
| 2026-05-01 07:37 | 49.81793 | 6.77470 | 7977 ft | 168 kts | 50° |
| 2026-05-01 07:37 | 49.82607 | 6.78720 | 7971 ft | 161 kts | 50° |
| 2026-05-01 07:37 | 49.83390 | 6.79925 | 7978 ft | 160 kts | 50° |
| 2026-05-01 07:38 | 49.84193 | 6.81167 | 7974 ft | 161 kts | 50° |
| 2026-05-01 07:38 | 49.84975 | 6.82373 | 7981 ft | 161 kts | 51° |
| 2026-05-01 07:38 | 49.86569 | 6.84832 | 7975 ft | 161 kts | 50° |
| 2026-05-01 07:39 | 49.87361 | 6.86054 | 7971 ft | 160 kts | 50° |
| 2026-05-01 07:39 | 49.88144 | 6.87264 | 7980 ft | 160 kts | 50° |
| 2026-05-01 07:39 | 49.89728 | 6.89716 | 7978 ft | 161 kts | 51° |
| 2026-05-01 07:40 | 49.90523 | 6.90946 | 7976 ft | 161 kts | 50° |
| 2026-05-01 07:40 | 49.91313 | 6.92167 | 7974 ft | 159 kts | 51° |
| 2026-05-01 07:40 | 49.92094 | 6.93377 | 7973 ft | 159 kts | 51° |
| 2026-05-01 07:40 | 49.92879 | 6.94595 | 7975 ft | 160 kts | 51° |
| 2026-05-01 07:41 | 49.93668 | 6.95819 | 7974 ft | 160 kts | 50° |
| 2026-05-01 07:41 | 49.94460 | 6.97029 | 7981 ft | 159 kts | 51° |
| 2026-05-01 07:41 | 49.96015 | 6.99451 | 8010 ft | 160 kts | 51° |
| 2026-05-01 07:42 | 49.96806 | 7.00681 | 8007 ft | 161 kts | 51° |
| 2026-05-01 07:42 | 49.97597 | 7.01908 | 8006 ft | 160 kts | 50° |
| 2026-05-01 07:42 | 49.98380 | 7.03126 | 8013 ft | 160 kts | 51° |
| 2026-05-01 07:42 | 49.99173 | 7.04362 | 8012 ft | 162 kts | 51° |
| 2026-05-01 07:43 | 49.99973 | 7.05606 | 8007 ft | 162 kts | 50° |
| 2026-05-01 07:43 | 50.00757 | 7.06825 | 8004 ft | 160 kts | 51° |
| 2026-05-01 07:43 | 50.02312 | 7.09248 | 8006 ft | 157 kts | 51° |